Time;durP1;ratioP1;P1;durP2;ratioP2;P2;SDS_P1;SDS_P2;PMS_P1;PMS_P2;Temp;Humidity;BMP_temperature;BMP_pressure;BME280_temperature;BME280_humidity;BME280_pressure;Samples;Min_cycle;Max_cycle;Signal;HPM_P1;HPM_P2
2022/01/25 00:10:00;;;;;;;11.65;10.45;;;21.70;66.70;;;;;;6209378;28;82814;-68
2022/01/25 00:26:22;;;;;;;13.60;12.18;;;21.70;66.70;;;;;;6200677;28;82796;-68
2022/01/25 00:29:33;;;;;;;13.50;12.10;;;21.70;66.70;;;;;;6185818;28;84186;-68
2022/01/25 00:32:35;;;;;;;13.50;12.10;;;21.70;66.60;;;;;;6195571;28;85779;-68
2022/01/25 00:35:37;;;;;;;14.05;12.55;;;21.60;66.60;;;;;;6206886;28;83353;-67
2022/01/25 00:38:40;;;;;;;14.35;12.85;;;21.70;66.60;;;;;;6198501;28;84076;-67
2022/01/25 00:41:43;;;;;;;14.27;12.77;;;21.70;66.70;;;;;;6211097;28;84382;-68
2022/01/25 00:44:48;;;;;;;14.38;12.88;;;21.60;66.60;;;;;;6211460;28;84950;-68
2022/01/25 00:47:51;;;;;;;14.68;13.18;;;21.60;66.60;;;;;;6205564;28;84039;-67
2022/01/25 00:51:03;;;;;;;15.88;14.18;;;21.60;66.60;;;;;;6202967;28;83904;-67
2022/01/25 00:54:12;;;;;;;14.85;13.32;;;21.60;66.60;;;;;;6195765;28;84169;-67
2022/01/25 00:57:15;;;;;;;14.73;13.15;;;21.50;66.60;;;;;;6202133;28;83959;-68
2022/01/25 01:00:17;;;;;;;15.27;13.68;;;21.50;66.60;;;;;;6223697;28;84360;-67
2022/01/25 01:03:19;;;;;;;15.88;14.15;;;21.60;66.70;;;;;;6198257;28;84390;-68
2022/01/25 01:06:21;;;;;;;16.27;14.20;;;21.50;66.70;;;;;;6204112;28;84068;-67
2022/01/25 01:09:25;;;;;;;15.30;13.68;;;21.50;66.70;;;;;;6209746;28;83958;-67
2022/01/25 01:12:54;;;;;;;15.48;13.82;;;21.50;66.60;;;;;;6203746;28;84055;-67
2022/01/25 01:16:05;;;;;;;15.98;14.27;;;21.50;66.70;;;;;;6209050;28;84476;-66
2022/01/25 01:33:06;;;;;;;15.45;13.82;;;21.50;66.40;;;;;;6189815;28;84811;-68
2022/01/25 01:39:51;;;;;;;16.02;14.00;;;21.50;66.40;;;;;;6207561;28;83543;-68
2022/01/25 01:43:03;;;;;;;15.60;14.02;;;21.40;66.40;;;;;;6209384;28;83201;-68
2022/01/25 01:46:26;;;;;;;16.08;14.38;;;21.40;66.40;;;;;;6218897;28;83075;-67
2022/01/25 01:49:29;;;;;;;15.15;13.65;;;21.40;66.40;;;;;;6209258;28;84565;-68
2022/01/25 01:52:31;;;;;;;14.95;13.45;;;21.40;66.50;;;;;;6218957;28;83803;-68
2022/01/25 01:55:35;;;;;;;14.93;13.43;;;21.40;66.50;;;;;;6213362;28;84314;-67
2022/01/25 01:58:40;;;;;;;15.95;14.23;;;21.40;66.50;;;;;;6207159;28;84020;-67
2022/01/25 02:01:45;;;;;;;15.65;14.05;;;21.40;66.50;;;;;;6198607;28;82965;-67
2022/01/25 02:04:47;;;;;;;15.43;13.82;;;21.40;66.60;;;;;;6199602;28;84031;-68
2022/01/25 02:07:49;;;;;;;15.13;13.63;;;21.30;66.50;;;;;;6185062;28;84147;-68
2022/01/25 02:10:51;;;;;;;15.90;14.20;;;21.30;66.50;;;;;;6197437;28;83393;-68
2022/01/25 02:13:57;;;;;;;16.15;14.45;;;21.30;66.50;;;;;;6208186;28;82888;-67
2022/01/25 02:17:08;;;;;;;15.57;13.98;;;21.30;66.40;;;;;;6197816;28;84045;-67
2022/01/25 02:23:34;;;;;;;16.92;15.13;;;21.30;67.20;;;;;;6185192;28;82749;-68
2022/01/25 02:26:36;;;;;;;16.55;14.88;;;21.30;66.20;;;;;;6197464;28;84204;-67
2022/01/25 02:29:39;;;;;;;16.30;14.65;;;21.30;66.10;;;;;;6206800;28;83902;-67
2022/01/25 02:32:41;;;;;;;15.68;14.07;;;21.30;66.20;;;;;;6186679;28;83953;-68
2022/01/25 02:35:44;;;;;;;16.95;15.15;;;21.30;66.30;;;;;;6196587;28;83868;-68
2022/01/25 02:38:46;;;;;;;16.55;14.85;;;21.30;66.20;;;;;;6194293;28;84052;-67
2022/01/25 02:41:48;;;;;;;17.63;15.82;;;21.30;66.30;;;;;;6220794;28;83434;-67
2022/01/25 02:44:51;;;;;;;17.17;15.40;;;21.20;66.30;;;;;;6204867;28;83961;-68
2022/01/25 02:51:14;;;;;;;18.20;16.30;;;21.20;66.30;;;;;;6210985;28;83233;-68
2022/01/25 02:54:18;;;;;;;18.27;16.40;;;21.20;66.30;;;;;;6206607;28;84341;-67
2022/01/25 02:57:21;;;;;;;18.77;16.77;;;21.20;66.30;;;;;;6197671;28;83815;-67
2022/01/25 03:00:25;;;;;;;18.45;16.50;;;21.20;66.30;;;;;;6190160;28;83665;-68
2022/01/25 03:03:27;;;;;;;18.55;16.55;;;21.20;66.40;;;;;;6195620;28;84054;-68
2022/01/25 03:06:30;;;;;;;17.80;15.90;;;21.20;66.40;;;;;;6185666;28;83937;-68
2022/01/25 03:09:32;;;;;;;18.15;16.35;;;21.20;66.30;;;;;;6199144;28;83982;-68
2022/01/25 03:12:40;;;;;;;18.10;16.30;;;21.10;66.20;;;;;;6201018;28;84497;-68
2022/01/25 03:15:58;;;;;;;17.45;15.65;;;21.20;66.30;;;;;;6206754;28;84399;-68
2022/01/25 03:19:03;;;;;;;18.40;16.50;;;21.20;66.20;;;;;;6208565;28;84067;-69
2022/01/25 03:22:15;;;;;;;17.80;16.00;;;21.20;66.20;;;;;;6208202;28;85175;-67
2022/01/25 03:25:17;;;;;;;18.73;16.73;;;21.20;66.10;;;;;;6194600;28;84262;-68
2022/01/25 03:28:22;;;;;;;18.25;16.35;;;21.10;66.10;;;;;;6208020;28;84006;-67
2022/01/25 03:31:25;;;;;;;18.25;16.42;;;21.20;66.30;;;;;;6197752;28;83342;-68
2022/01/25 03:34:27;;;;;;;18.67;16.73;;;21.10;66.30;;;;;;6196367;28;84063;-68
2022/01/25 03:37:30;;;;;;;17.50;15.75;;;21.10;67.20;;;;;;6204095;28;83940;-68
2022/01/25 03:40:33;;;;;;;18.65;16.75;;;21.10;66.60;;;;;;6194903;28;83222;-68
2022/01/25 03:43:36;;;;;;;18.35;16.45;;;21.10;66.30;;;;;;6208016;28;83377;-68
2022/01/25 03:46:43;;;;;;;18.05;16.15;;;21.10;66.30;;;;;;6205889;28;83879;-68
2022/01/25 03:49:52;;;;;;;17.80;16.00;;;21.10;66.40;;;;;;6198841;28;83146;-68
2022/01/25 03:52:55;;;;;;;17.85;15.95;;;21.00;66.40;;;;;;6222212;28;85275;-67
2022/01/25 03:55:57;;;;;;;18.05;16.25;;;21.00;66.30;;;;;;6207118;28;84084;-67
2022/01/25 03:59:00;;;;;;;17.98;16.13;;;21.00;66.30;;;;;;6210581;28;84073;-68
2022/01/25 04:02:02;;;;;;;17.42;15.63;;;21.00;66.30;;;;;;6213114;28;84250;-68
2022/01/25 04:05:08;;;;;;;17.90;16.05;;;21.00;66.40;;;;;;6200256;28;84046;-68
2022/01/25 04:08:13;;;;;;;18.55;16.65;;;21.00;66.30;;;;;;6204755;28;84305;-69
2022/01/25 04:11:15;;;;;;;17.95;16.15;;;21.00;66.30;;;;;;6215402;28;84489;-68
2022/01/25 04:14:17;;;;;;;17.33;15.52;;;21.00;66.30;;;;;;6206239;28;83278;-67
2022/01/25 04:17:19;;;;;;;17.38;15.68;;;21.00;66.10;;;;;;6211663;28;84097;-68
2022/01/25 04:20:26;;;;;;;16.38;14.70;;;21.00;66.10;;;;;;6210083;28;84105;-68
2022/01/25 04:26:49;;;;;;;16.15;14.45;;;21.10;66.00;;;;;;6194348;28;82714;-68
2022/01/25 04:29:52;;;;;;;16.50;14.82;;;21.10;65.90;;;;;;6221101;28;84078;-67
2022/01/25 04:32:59;;;;;;;16.02;14.43;;;21.10;65.80;;;;;;6199354;28;82931;-68
2022/01/25 04:36:23;;;;;;;16.23;14.60;;;21.00;65.80;;;;;;6211588;28;84006;-68
2022/01/25 04:49:28;;;;;;;15.68;14.07;;;21.20;65.60;;;;;;6198842;28;83153;-67
2022/01/25 04:52:35;;;;;;;14.55;13.15;;;21.20;65.60;;;;;;6211313;28;84176;-67
2022/01/25 04:55:45;;;;;;;15.65;14.05;;;21.20;65.70;;;;;;6210546;28;85081;-67
2022/01/25 04:58:54;;;;;;;15.02;13.52;;;21.20;65.60;;;;;;6210263;28;83053;-68
2022/01/25 05:02:02;;;;;;;14.65;13.15;;;21.20;65.50;;;;;;6208952;28;84053;-68
2022/01/25 05:05:10;;;;;;;13.88;12.48;;;21.20;65.50;;;;;;6197611;28;83464;-68
2022/01/25 05:08:20;;;;;;;13.60;12.30;;;21.20;65.30;;;;;;6218466;28;84475;-68
2022/01/25 05:11:29;;;;;;;14.60;13.10;;;21.30;65.40;;;;;;6209910;28;83920;-67
2022/01/25 05:14:34;;;;;;;13.70;12.40;;;21.30;65.30;;;;;;6199839;28;82975;-68
2022/01/25 05:17:42;;;;;;;13.65;12.35;;;21.40;65.40;;;;;;6210282;28;83287;-67
2022/01/25 05:24:04;;;;;;;13.95;12.55;;;21.40;65.20;;;;;;6199533;28;82770;-68
2022/01/25 05:27:09;;;;;;;13.32;12.02;;;21.40;65.20;;;;;;6209044;28;84985;-68
2022/01/25 05:30:12;;;;;;;13.05;11.75;;;21.40;65.30;;;;;;6203436;28;84086;-67
2022/01/25 05:33:14;;;;;;;12.63;11.32;;;21.40;65.20;;;;;;6204237;28;82906;-67
2022/01/25 05:36:17;;;;;;;13.55;12.27;;;21.40;65.20;;;;;;6201402;28;83962;-66
2022/01/25 05:39:23;;;;;;;12.43;11.23;;;21.40;65.20;;;;;;6204226;28;83163;-68
2022/01/25 05:42:44;;;;;;;13.50;12.10;;;21.40;65.20;;;;;;6204180;28;83296;-67
2022/01/25 05:45:58;;;;;;;12.98;11.68;;;21.40;65.20;;;;;;6200030;28;84342;-68
2022/01/25 05:49:00;;;;;;;12.60;11.30;;;21.40;65.60;;;;;;6208051;28;83342;-68
2022/01/25 05:52:03;;;;;;;11.63;10.43;;;21.30;65.30;;;;;;6208111;28;84060;-68
2022/01/25 05:55:06;;;;;;;12.40;11.20;;;21.40;65.40;;;;;;6204784;28;83695;-67
2022/01/25 05:58:10;;;;;;;11.88;10.77;;;21.40;65.50;;;;;;6201427;28;85324;-68
2022/01/25 06:01:12;;;;;;;11.98;10.77;;;21.40;65.70;;;;;;6196554;28;84124;-68
2022/01/25 06:04:14;;;;;;;12.07;10.88;;;21.40;65.70;;;;;;6205946;28;84177;-68
2022/01/25 06:07:16;;;;;;;11.82;10.70;;;21.40;65.70;;;;;;6200365;28;82927;-67
2022/01/25 06:10:19;;;;;;;11.25;10.15;;;21.40;65.70;;;;;;6198910;28;84100;-68
2022/01/25 06:13:22;;;;;;;10.98;9.88;;;21.40;65.70;;;;;;6208870;28;84008;-67
2022/01/25 06:16:24;;;;;;;11.63;10.45;;;21.40;65.70;;;;;;6199876;28;84378;-67
2022/01/25 06:19:27;;;;;;;10.70;9.70;;;21.30;65.60;;;;;;6212488;28;83133;-68
2022/01/25 06:22:29;;;;;;;12.85;10.35;;;21.40;65.70;;;;;;6199136;28;83554;-67
2022/01/25 06:25:31;;;;;;;11.40;10.23;;;21.40;65.70;;;;;;6195949;28;84588;-68
2022/01/25 06:28:34;;;;;;;10.52;9.43;;;21.40;65.70;;;;;;6207519;28;84938;-68
2022/01/25 06:31:36;;;;;;;10.75;9.68;;;21.40;65.60;;;;;;6211115;28;84146;-67
2022/01/25 06:34:39;;;;;;;10.00;9.00;;;21.40;65.50;;;;;;6209124;28;83999;-68
2022/01/25 06:37:41;;;;;;;10.73;9.73;;;21.40;65.50;;;;;;6199420;28;84224;-67
2022/01/25 06:40:43;;;;;;;10.75;9.60;;;21.50;65.50;;;;;;6211243;28;84012;-68
2022/01/25 06:43:46;;;;;;;10.50;9.50;;;21.60;65.50;;;;;;6200029;28;82895;-68
2022/01/25 06:46:48;;;;;;;9.52;8.63;;;21.60;65.50;;;;;;6201845;28;89090;-68
2022/01/25 06:49:50;;;;;;;10.75;9.65;;;21.50;65.40;;;;;;6197203;28;88507;-68
2022/01/25 06:52:53;;;;;;;10.13;9.10;;;21.60;65.40;;;;;;6205714;28;89186;-67
2022/01/25 06:55:56;;;;;;;10.07;9.07;;;21.60;65.40;;;;;;6207407;28;89103;-67
2022/01/25 06:58:59;;;;;;;9.77;8.77;;;21.60;65.30;;;;;;6181411;28;90245;-68
2022/01/25 07:02:01;;;;;;;9.25;8.35;;;21.60;65.20;;;;;;6206178;28;89124;-68
2022/01/25 07:05:05;;;;;;;9.00;8.10;;;21.60;65.20;;;;;;6194182;28;90279;-68
2022/01/25 07:08:07;;;;;;;9.05;8.13;;;21.70;65.20;;;;;;6205953;28;89481;-68
2022/01/25 07:11:09;;;;;;;9.10;8.20;;;21.70;65.20;;;;;;6191717;28;89236;-68
2022/01/25 07:14:12;;;;;;;8.88;8.07;;;21.70;65.10;;;;;;6203662;28;89523;-67
2022/01/25 07:17:15;;;;;;;8.50;7.70;;;21.70;65.00;;;;;;6196467;28;89187;-68
2022/01/25 07:20:17;;;;;;;8.70;7.90;;;21.80;65.10;;;;;;6206165;28;88706;-68
2022/01/25 07:23:19;;;;;;;8.50;7.70;;;21.80;65.00;;;;;;6195138;28;89021;-67
2022/01/25 07:26:21;;;;;;;8.68;7.75;;;21.80;65.00;;;;;;6208999;28;89119;-68
2022/01/25 07:29:25;;;;;;;8.48;7.68;;;21.80;64.90;;;;;;6211371;28;90336;-68
2022/01/25 07:32:27;;;;;;;8.98;8.13;;;21.80;64.90;;;;;;6199243;28;89380;-68
2022/01/25 07:35:29;;;;;;;7.78;7.00;;;21.80;64.90;;;;;;6207471;28;89064;-67
2022/01/25 07:38:31;;;;;;;7.80;7.00;;;21.80;64.90;;;;;;6224786;28;89093;-67
2022/01/25 07:41:33;;;;;;;7.93;7.13;;;21.90;64.90;;;;;;6210053;28;89039;-68
2022/01/25 07:44:38;;;;;;;7.88;7.07;;;21.90;64.80;;;;;;6209637;28;89141;-68
2022/01/25 07:47:41;;;;;;;7.35;6.65;;;21.90;64.70;;;;;;6209654;28;89180;-68
2022/01/25 07:50:43;;;;;;;8.13;7.35;;;21.90;64.70;;;;;;6201209;28;88317;-68
2022/01/25 07:53:45;;;;;;;7.72;7.03;;;21.90;64.70;;;;;;6210341;28;89440;-68
2022/01/25 07:56:47;;;;;;;7.75;7.05;;;21.90;64.70;;;;;;6218458;28;87994;-68
2022/01/25 07:59:50;;;;;;;7.35;6.65;;;21.90;64.70;;;;;;6199994;28;90384;-67
2022/01/25 08:02:53;;;;;;;7.63;6.93;;;21.90;64.50;;;;;;6209136;28;88118;-68
2022/01/25 08:05:55;;;;;;;7.20;6.50;;;22.00;64.60;;;;;;6210190;28;89017;-68
2022/01/25 08:08:58;;;;;;;7.13;6.43;;;22.00;64.50;;;;;;6214583;28;89100;-67
2022/01/25 08:12:00;;;;;;;6.90;6.22;;;22.00;64.50;;;;;;6198513;28;89414;-68
2022/01/25 08:15:04;;;;;;;7.32;6.63;;;22.00;64.50;;;;;;6198745;28;89394;-67
2022/01/25 08:18:06;;;;;;;6.75;6.10;;;22.00;64.40;;;;;;6211810;28;89163;-67
2022/01/25 08:21:08;;;;;;;6.65;6.05;;;22.00;64.50;;;;;;6209950;28;88308;-69
2022/01/25 08:24:13;;;;;;;7.00;6.30;;;22.00;64.40;;;;;;6207894;28;88996;-67
2022/01/25 08:27:19;;;;;;;6.40;5.80;;;22.10;64.40;;;;;;6210295;28;88899;-68
2022/01/25 08:30:23;;;;;;;7.15;6.45;;;22.10;64.40;;;;;;6200383;28;90048;-67
2022/01/25 08:33:25;;;;;;;5.85;5.35;;;22.10;64.40;;;;;;6212207;28;89224;-67
2022/01/25 08:36:28;;;;;;;6.20;5.60;;;22.10;64.30;;;;;;6208798;28;89010;-68
2022/01/25 08:39:30;;;;;;;5.80;5.30;;;22.10;64.30;;;;;;6196311;28;88844;-68
2022/01/25 08:42:32;;;;;;;6.35;5.75;;;22.10;64.20;;;;;;6202043;28;89095;-68
2022/01/25 08:45:35;;;;;;;6.20;5.60;;;22.20;64.30;;;;;;6210025;28;89502;-68
2022/01/25 08:48:37;;;;;;;6.03;5.45;;;22.10;64.20;;;;;;6214803;28;89080;-68
2022/01/25 08:51:40;;;;;;;5.70;5.20;;;22.10;64.20;;;;;;6208812;28;87386;-68
2022/01/25 08:54:42;;;;;;;6.18;5.60;;;22.10;64.20;;;;;;6215061;28;88767;-68
2022/01/25 08:57:44;;;;;;;5.57;5.07;;;22.20;64.20;;;;;;6198459;28;89474;-68
2022/01/25 09:00:48;;;;;;;5.47;4.97;;;22.20;64.20;;;;;;6197236;28;88967;-68
2022/01/25 09:03:50;;;;;;;5.80;5.30;;;22.10;64.20;;;;;;6214485;28;89003;-68
2022/01/25 09:06:52;;;;;;;5.50;5.00;;;22.20;64.20;;;;;;6209082;28;89077;-68
2022/01/25 09:09:54;;;;;;;5.43;4.93;;;22.20;64.20;;;;;;6195854;28;89343;-68
2022/01/25 09:12:56;;;;;;;5.35;4.85;;;22.20;64.10;;;;;;6210816;28;88994;-68
2022/01/25 09:16:00;;;;;;;5.47;4.97;;;22.20;64.10;;;;;;6208694;28;89005;-68
2022/01/25 09:19:03;;;;;;;5.35;4.85;;;22.20;64.00;;;;;;6196802;28;89104;-67
2022/01/25 09:22:24;;;;;;;5.72;4.80;;;22.20;64.00;;;;;;6207884;28;88296;-68
2022/01/25 09:25:26;;;;;;;5.43;4.93;;;22.20;64.00;;;;;;6207196;28;87960;-68
2022/01/25 09:28:28;;;;;;;5.38;4.88;;;22.20;64.00;;;;;;6209594;28;89089;-68
2022/01/25 09:31:32;;;;;;;5.05;4.60;;;22.30;64.00;;;;;;6207444;28;90074;-67
2022/01/25 09:34:34;;;;;;;4.82;4.43;;;22.30;64.10;;;;;;6193525;28;89170;-67
2022/01/25 09:37:36;;;;;;;5.20;4.70;;;22.30;64.00;;;;;;6209966;28;89099;-67
2022/01/25 09:40:38;;;;;;;4.90;4.40;;;22.30;64.00;;;;;;6207812;28;88186;-68
2022/01/25 09:43:40;;;;;;;4.75;4.35;;;22.20;64.00;;;;;;6193885;28;89061;-68
2022/01/25 09:46:44;;;;;;;4.72;4.32;;;22.30;64.00;;;;;;6205853;28;89070;-68
2022/01/25 09:49:46;;;;;;;5.20;4.70;;;22.20;64.90;;;;;;6208251;28;89019;-68
2022/01/25 09:52:48;;;;;;;4.72;4.32;;;22.20;64.00;;;;;;6208606;28;88704;-68
2022/01/25 09:55:50;;;;;;;4.43;4.03;;;22.30;64.00;;;;;;6197001;28;89060;-68
2022/01/25 09:58:52;;;;;;;4.40;4.00;;;22.30;64.00;;;;;;6195917;28;89051;-68
2022/01/25 10:01:56;;;;;;;4.60;4.20;;;22.30;64.00;;;;;;6190652;28;90049;-68
2022/01/25 10:04:58;;;;;;;4.65;4.25;;;22.30;64.00;;;;;;6207377;28;89088;-68
2022/01/25 10:08:02;;;;;;;4.30;3.90;;;22.40;64.00;;;;;;6202805;28;89154;-67
2022/01/25 10:11:06;;;;;;;4.28;3.88;;;22.30;63.90;;;;;;6186226;28;89354;-68
2022/01/25 10:14:09;;;;;;;4.40;4.00;;;22.40;64.00;;;;;;6194769;28;87945;-68
2022/01/25 10:17:12;;;;;;;3.75;3.45;;;22.30;63.90;;;;;;6204106;28;88494;-68
2022/01/25 10:20:29;;;;;;;4.20;3.80;;;22.40;64.00;;;;;;6196106;28;88998;-69
2022/01/25 10:23:32;;;;;;;4.15;3.83;;;22.40;64.00;;;;;;6210444;28;88621;-68
2022/01/25 10:26:35;;;;;;;4.18;3.88;;;22.40;64.00;;;;;;6182480;28;88979;-68
2022/01/25 10:29:40;;;;;;;4.32;3.92;;;22.40;63.90;;;;;;6208362;28;89219;-67
2022/01/25 10:32:44;;;;;;;4.25;3.85;;;22.40;63.90;;;;;;6182111;28;90040;-68
2022/01/25 10:35:46;;;;;;;3.95;3.58;;;22.40;63.90;;;;;;6207022;28;89075;-68
2022/01/25 10:38:51;;;;;;;4.03;3.70;;;22.40;63.90;;;;;;6205527;28;88305;-68
2022/01/25 10:41:53;;;;;;;4.18;3.83;;;22.40;63.90;;;;;;6206378;28;89041;-68
2022/01/25 10:44:56;;;;;;;3.90;3.50;;;22.40;63.90;;;;;;6204222;28;89065;-68
2022/01/25 10:48:00;;;;;;;3.60;3.30;;;22.40;63.90;;;;;;6196153;28;87892;-66
2022/01/25 10:51:07;;;;;;;3.75;3.45;;;22.40;63.90;;;;;;6192435;28;89422;-68
2022/01/25 10:54:13;;;;;;;4.18;3.55;;;22.40;63.90;;;;;;6220832;28;88384;-67
2022/01/25 10:57:19;;;;;;;4.00;3.70;;;22.40;63.90;;;;;;6194935;28;89302;-68
2022/01/25 11:00:21;;;;;;;3.75;3.45;;;22.40;63.90;;;;;;6193071;28;89057;-68
2022/01/25 11:03:30;;;;;;;3.85;3.55;;;22.40;63.90;;;;;;6197675;28;89935;-67
2022/01/25 11:06:32;;;;;;;3.92;3.63;;;22.40;63.90;;;;;;6201602;28;88081;-68
2022/01/25 11:09:40;;;;;;;3.80;3.50;;;22.40;63.90;;;;;;6193153;28;89119;-68
2022/01/25 11:12:58;;;;;;;3.50;3.20;;;22.50;64.00;;;;;;6193557;28;89046;-68
2022/01/25 11:16:02;;;;;;;3.60;3.30;;;22.40;64.00;;;;;;6204123;28;89500;-68
2022/01/25 11:19:05;;;;;;;3.58;3.28;;;22.40;64.00;;;;;;6207035;28;89140;-69
2022/01/25 11:22:12;;;;;;;3.63;3.33;;;22.40;64.00;;;;;;6202917;28;89084;-68
2022/01/25 11:25:19;;;;;;;3.88;3.55;;;22.40;64.00;;;;;;6198811;28;87038;-68
2022/01/25 11:28:21;;;;;;;3.45;3.15;;;22.30;63.90;;;;;;6205870;28;89424;-68
2022/01/25 11:31:25;;;;;;;3.60;3.30;;;22.40;64.00;;;;;;6217340;28;89058;-69
2022/01/25 11:34:31;;;;;;;3.90;3.60;;;22.30;64.00;;;;;;6194144;28;89754;-68
2022/01/25 11:37:38;;;;;;;3.63;3.13;;;22.40;65.00;;;;;;6202230;28;88056;-67
2022/01/25 11:40:42;;;;;;;3.45;3.15;;;22.30;64.00;;;;;;6182559;28;88981;-68
2022/01/25 11:43:45;;;;;;;3.20;2.90;;;22.30;64.10;;;;;;6204166;28;89160;-68
2022/01/25 11:46:50;;;;;;;3.50;3.20;;;22.20;64.10;;;;;;6205256;28;89387;-68
2022/01/25 11:49:56;;;;;;;3.38;3.08;;;22.30;64.20;;;;;;6205244;28;89116;-67
2022/01/25 11:53:05;;;;;;;3.50;3.20;;;22.20;64.30;;;;;;6197282;28;89037;-67
2022/01/25 11:56:10;;;;;;;3.45;3.15;;;22.20;64.30;;;;;;6201528;28;88422;-68
2022/01/25 11:59:15;;;;;;;3.42;3.05;;;22.20;64.40;;;;;;6206762;28;89136;-69
2022/01/25 12:02:35;;;;;;;3.40;3.10;;;22.20;64.50;;;;;;6194587;28;88988;-68
2022/01/25 12:05:55;;;;;;;3.50;3.20;;;22.10;64.50;;;;;;6193732;28;90273;-68
2022/01/25 12:09:10;;;;;;;3.53;3.22;;;22.10;64.60;;;;;;6191981;28;89211;-68
2022/01/25 12:12:14;;;;;;;3.20;2.90;;;22.00;64.70;;;;;;6208572;28;89195;-68
2022/01/25 12:15:22;;;;;;;3.83;3.00;;;22.00;64.70;;;;;;6210551;28;89382;-68
2022/01/25 12:18:53;;;;;;;3.35;3.05;;;22.00;64.90;;;;;;6196807;28;89303;-68
2022/01/25 12:22:05;;;;;;;3.55;3.25;;;21.90;64.90;;;;;;6206057;28;89056;-68
2022/01/25 12:25:14;;;;;;;3.25;2.95;;;21.90;65.00;;;;;;6202591;28;89006;-69
2022/01/25 12:28:25;;;;;;;2.90;2.70;;;21.90;65.10;;;;;;6218607;28;88135;-68
2022/01/25 12:31:42;;;;;;;3.20;2.90;;;21.80;65.00;;;;;;6196414;28;87959;-68
2022/01/25 12:34:59;;;;;;;3.13;2.85;;;21.90;65.20;;;;;;6207653;28;89064;-68
2022/01/25 12:38:06;;;;;;;3.15;2.65;;;21.80;65.20;;;;;;6208604;28;90288;-69
2022/01/25 12:41:12;;;;;;;3.10;2.80;;;21.80;65.20;;;;;;6194063;28;89067;-68
2022/01/25 12:44:14;;;;;;;3.25;2.88;;;21.80;65.20;;;;;;6198320;28;87871;-69
2022/01/25 12:47:16;;;;;;;2.83;2.63;;;21.80;65.20;;;;;;6208810;28;89126;-68
2022/01/25 12:50:18;;;;;;;2.83;2.63;;;21.80;65.20;;;;;;6204659;28;89249;-68
2022/01/25 12:53:24;;;;;;;3.13;2.80;;;21.80;65.20;;;;;;6185141;28;89365;-68
2022/01/25 12:56:28;;;;;;;4.00;2.60;;;21.70;65.20;;;;;;6194618;28;87954;-68
2022/01/25 12:59:33;;;;;;;2.80;2.60;;;21.80;65.20;;;;;;6197158;28;88358;-68
2022/01/25 13:02:35;;;;;;;3.17;2.92;;;21.70;65.30;;;;;;6207656;28;89076;-68
2022/01/25 13:05:42;;;;;;;2.90;2.70;;;21.70;65.30;;;;;;6197449;28;89066;-67
2022/01/25 13:08:52;;;;;;;3.00;2.70;;;21.70;65.30;;;;;;6196846;28;90024;-68
2022/01/25 13:12:12;;;;;;;2.92;2.72;;;21.70;65.30;;;;;;6207031;28;89028;-68
2022/01/25 13:15:39;;;;;;;2.63;2.42;;;21.70;65.30;;;;;;6183623;28;89039;-68
2022/01/25 13:18:41;;;;;;;2.83;2.63;;;21.70;65.40;;;;;;6196773;28;88877;-68
2022/01/25 13:21:45;;;;;;;2.78;2.58;;;21.70;65.40;;;;;;6208810;28;89574;-68
2022/01/25 13:24:58;;;;;;;3.55;2.65;;;21.70;65.40;;;;;;6209488;28;89065;-68
2022/01/25 13:28:09;;;;;;;2.78;2.58;;;21.60;65.40;;;;;;6209141;28;89385;-68
2022/01/25 13:31:13;;;;;;;2.50;2.30;;;21.60;65.40;;;;;;6195965;28;88315;-68
2022/01/25 13:34:23;;;;;;;2.70;2.50;;;21.60;65.40;;;;;;6198129;28;89017;-68
2022/01/25 13:37:25;;;;;;;2.70;2.50;;;21.60;65.40;;;;;;6206594;28;89010;-68
2022/01/25 13:40:34;;;;;;;2.72;2.53;;;21.60;65.40;;;;;;6218475;28;89882;-69
2022/01/25 13:47:12;;;;;;;2.70;2.50;;;21.60;65.40;;;;;;6125098;28;87825;-67
2022/01/25 13:50:14;;;;;;;2.97;2.78;;;21.60;65.40;;;;;;6206965;28;90312;-68
2022/01/25 13:53:19;;;;;;;2.60;2.40;;;21.60;65.50;;;;;;6195594;28;89004;-68
2022/01/25 13:56:25;;;;;;;3.45;2.83;;;21.60;65.50;;;;;;6209054;28;89110;-67
2022/01/25 13:59:27;;;;;;;2.70;2.50;;;21.50;65.50;;;;;;6196360;28;89083;-69
2022/01/25 14:02:29;;;;;;;2.65;2.33;;;21.50;65.50;;;;;;6201678;28;88306;-68
2022/01/25 14:05:37;;;;;;;2.83;2.50;;;21.50;65.50;;;;;;6185178;28;87984;-68
2022/01/25 14:08:41;;;;;;;3.83;2.78;;;21.50;65.50;;;;;;6199841;28;90670;-68
2022/01/25 14:21:32;;;;;;;2.90;2.70;;;21.50;65.70;;;;;;6181134;28;89885;-69
2022/01/25 14:22:23;;;;;;;2.72;2.53;;;21.40;65.70;;;;;;6201766;28;87226;-68
2022/01/25 14:25:30;;;;;;;2.78;2.50;;;21.40;65.80;;;;;;6201725;28;88279;-69
2022/01/25 14:28:40;;;;;;;2.70;2.50;;;21.30;65.70;;;;;;6227354;28;89085;-68
2022/01/25 14:31:45;;;;;;;4.40;2.78;;;21.40;65.80;;;;;;6210797;28;89320;-68
2022/01/25 14:35:00;;;;;;;2.75;2.55;;;21.40;65.90;;;;;;6198449;28;88549;-69
2022/01/25 14:38:02;;;;;;;2.60;2.40;;;21.30;65.90;;;;;;6188579;28;89197;-68
2022/01/25 14:41:08;;;;;;;2.65;2.42;;;21.30;65.90;;;;;;6212772;28;89176;-68
2022/01/25 14:44:21;;;;;;;2.55;2.35;;;21.30;66.00;;;;;;6208517;28;90022;-69
2022/01/25 14:47:35;;;;;;;2.58;2.22;;;21.30;66.00;;;;;;6200648;28;89244;-68
2022/01/25 14:50:37;;;;;;;2.63;2.40;;;21.30;66.00;;;;;;6201941;28;87945;-69
2022/01/25 14:53:39;;;;;;;2.50;2.30;;;21.30;66.00;;;;;;6184439;28;89049;-68
2022/01/25 14:56:49;;;;;;;3.28;2.38;;;21.30;66.10;;;;;;6193848;28;89101;-68
2022/01/25 14:59:52;;;;;;;2.40;2.20;;;21.30;66.10;;;;;;6200469;28;90378;-69
2022/01/25 15:02:54;;;;;;;2.17;1.98;;;21.30;66.10;;;;;;6203646;28;90809;-69
2022/01/25 15:05:56;;;;;;;2.72;2.50;;;21.30;66.10;;;;;;6188242;28;87223;-69
2022/01/25 15:08:59;;;;;;;2.40;2.20;;;21.30;66.20;;;;;;6206004;28;89066;-69
2022/01/25 15:12:01;;;;;;;2.58;2.38;;;21.20;66.20;;;;;;6190340;28;89191;-69
2022/01/25 15:15:10;;;;;;;2.58;2.35;;;21.20;66.30;;;;;;6185123;28;90053;-69
2022/01/25 15:18:12;;;;;;;2.60;2.40;;;21.20;66.40;;;;;;6192759;28;88293;-69
2022/01/25 15:21:15;;;;;;;3.17;2.60;;;21.20;66.40;;;;;;6186737;28;90352;-69
2022/01/25 15:24:18;;;;;;;2.35;2.15;;;21.20;66.40;;;;;;6193775;28;89056;-68
2022/01/25 15:27:23;;;;;;;2.35;2.15;;;21.20;66.40;;;;;;6219278;28;89275;-69
2022/01/25 15:30:27;;;;;;;4.30;2.70;;;21.20;66.50;;;;;;6207005;28;89135;-68
2022/01/25 15:33:29;;;;;;;3.55;2.60;;;21.20;66.50;;;;;;6193433;28;87972;-68
2022/01/25 15:36:31;;;;;;;3.13;2.42;;;21.20;66.40;;;;;;6218535;28;88260;-68
2022/01/25 15:39:34;;;;;;;2.58;2.38;;;21.20;66.40;;;;;;6182598;28;88254;-68
2022/01/25 15:42:36;;;;;;;3.10;2.80;;;21.20;66.50;;;;;;6195311;28;87946;-68
2022/01/25 15:46:00;;;;;;;3.50;2.92;;;21.20;66.40;;;;;;6199694;28;89997;-68
2022/01/25 15:49:05;;;;;;;2.92;2.70;;;21.20;66.40;;;;;;6219894;28;88778;-69
2022/01/25 15:52:08;;;;;;;3.00;2.70;;;21.10;66.30;;;;;;6206937;28;88240;-68
2022/01/25 15:55:11;;;;;;;3.00;2.70;;;21.10;66.30;;;;;;6205155;28;88992;-69
2022/01/25 15:58:13;;;;;;;3.58;2.63;;;21.10;66.30;;;;;;6229230;28;89043;-68
2022/01/25 16:01:16;;;;;;;3.10;2.70;;;21.10;66.30;;;;;;6225920;28;88314;-68
2022/01/25 16:04:18;;;;;;;3.15;2.85;;;21.10;66.30;;;;;;6195357;28;87983;-69
2022/01/25 16:07:21;;;;;;;4.88;2.80;;;21.10;66.30;;;;;;6209113;28;88507;-68
2022/01/25 16:10:23;;;;;;;3.30;2.80;;;21.00;66.30;;;;;;6198626;28;88916;-69
2022/01/25 16:13:25;;;;;;;4.43;2.92;;;21.00;66.20;;;;;;6223649;28;89097;-69
2022/01/25 16:16:29;;;;;;;3.10;2.78;;;21.10;66.30;;;;;;6221538;28;90032;-68
2022/01/25 16:19:31;;;;;;;3.30;2.72;;;21.00;66.30;;;;;;6197057;28;89086;-69
2022/01/25 16:22:33;;;;;;;3.17;2.85;;;21.00;66.30;;;;;;6208036;28;89064;-67
2022/01/25 16:25:35;;;;;;;3.25;2.70;;;21.00;66.20;;;;;;6202428;28;88344;-68
2022/01/25 16:28:37;;;;;;;3.40;3.10;;;21.00;66.10;;;;;;6201513;28;89010;-68
2022/01/25 16:31:43;;;;;;;3.53;3.22;;;21.00;66.10;;;;;;6205770;28;89089;-68
2022/01/25 16:34:45;;;;;;;3.33;3.03;;;21.00;66.10;;;;;;6197699;28;89655;-68
2022/01/25 16:37:47;;;;;;;3.17;2.88;;;21.00;66.10;;;;;;6204699;28;88379;-68
2022/01/25 16:40:49;;;;;;;3.13;2.83;;;21.00;66.10;;;;;;6199028;28;89414;-67
2022/01/25 16:43:51;;;;;;;3.15;2.88;;;21.00;66.10;;;;;;6205834;28;88945;-69
2022/01/25 16:46:56;;;;;;;3.90;2.90;;;21.00;66.00;;;;;;6202868;28;90462;-68
2022/01/25 16:49:58;;;;;;;3.95;2.88;;;21.00;66.00;;;;;;6201800;28;89080;-67
2022/01/25 16:53:00;;;;;;;7.20;3.58;;;21.00;66.00;;;;;;6196868;28;89384;-68
2022/01/25 16:56:02;;;;;;;4.15;3.15;;;21.00;66.30;;;;;;6204798;28;89127;-68
2022/01/25 16:59:07;;;;;;;4.55;3.05;;;21.00;66.50;;;;;;6195940;28;89144;-67
2022/01/25 17:02:12;;;;;;;4.30;3.60;;;21.00;66.40;;;;;;6207858;28;88036;-67
2022/01/25 17:05:15;;;;;;;3.67;3.08;;;21.00;66.30;;;;;;6209380;28;88887;-69
2022/01/25 17:08:17;;;;;;;4.38;3.17;;;21.10;66.30;;;;;;6209318;28;88646;-68